Time;durP1;ratioP1;P1;durP2;ratioP2;P2;SDS_P1;SDS_P2;PMS_P1;PMS_P2;Temp;Humidity;BMP_temperature;BMP_pressure;BME280_temperature;BME280_humidity;BME280_pressure;Samples;Min_cycle;Max_cycle;Signal;HPM_P1;HPM_P2
2022/08/23 00:01:23;;;;;;;12.43;7.43;;;17.30;99.90;;;;;;5042447;28;20051;-51
2022/08/23 00:03:50;;;;;;;9.75;7.57;;;17.20;99.90;;;;;;5020944;28;20079;-47
2022/08/23 00:06:17;;;;;;;12.85;9.20;;;17.10;99.90;;;;;;5024543;28;20048;-50
2022/08/23 00:08:44;;;;;;;12.93;9.18;;;17.00;99.90;;;;;;5041188;28;20446;-49
2022/08/23 00:11:30;;;;;;;11.02;8.25;;;16.90;99.90;;;;;;5043109;28;20053;-48
2022/08/23 00:13:58;;;;;;;11.82;8.57;;;16.90;99.90;;;;;;5027275;28;20057;-47
2022/08/23 00:16:25;;;;;;;9.95;7.63;;;16.80;99.90;;;;;;5021687;28;20052;-50
2022/08/23 00:18:50;;;;;;;14.60;10.55;;;16.70;99.90;;;;;;5037549;28;20439;-53
2022/08/23 00:21:16;;;;;;;13.35;11.40;;;16.70;99.90;;;;;;5023837;28;20107;-52
2022/08/23 00:23:42;;;;;;;14.25;11.90;;;16.70;99.90;;;;;;5041283;28;20106;-52
2022/08/23 00:26:11;;;;;;;13.77;10.55;;;16.70;99.90;;;;;;5007721;28;20049;-47
2022/08/23 00:28:37;;;;;;;14.70;10.95;;;16.60;99.90;;;;;;5041055;28;20070;-51
2022/08/23 00:31:03;;;;;;;17.55;11.65;;;16.60;99.90;;;;;;5040917;28;20407;-47
2022/08/23 00:33:28;;;;;;;14.95;10.95;;;16.60;99.90;;;;;;5040292;28;20060;-47
2022/08/23 00:35:54;;;;;;;16.00;12.32;;;16.50;99.90;;;;;;5039370;28;20071;-47
2022/08/23 00:38:20;;;;;;;14.52;11.48;;;16.50;99.90;;;;;;5041383;28;20049;-49
2022/08/23 00:40:49;;;;;;;13.07;11.63;;;16.50;99.90;;;;;;5040658;28;20052;-47
2022/08/23 00:48:54;;;;;;;13.00;9.32;;;16.30;99.90;;;;;;5040602;28;20060;-48
2022/08/23 00:51:35;;;;;;;11.80;10.07;;;16.30;99.90;;;;;;5040019;28;20087;-47
2022/08/23 00:54:01;;;;;;;15.07;10.82;;;16.30;99.90;;;;;;5041518;28;20170;-49
2022/08/23 00:56:32;;;;;;;14.02;10.23;;;16.30;99.90;;;;;;5045353;28;20605;-47
2022/08/23 00:58:58;;;;;;;14.82;12.25;;;16.20;99.90;;;;;;5045122;28;20136;-48
2022/08/23 01:01:24;;;;;;;19.42;12.35;;;16.20;99.90;;;;;;5026618;28;20048;-49
2022/08/23 01:03:54;;;;;;;16.25;12.98;;;16.20;99.90;;;;;;5044285;28;20049;-50
2022/08/23 01:06:36;;;;;;;16.60;13.68;;;16.30;99.90;;;;;;5044640;28;20431;-48
2022/08/23 01:09:10;;;;;;;18.15;13.50;;;16.20;99.90;;;;;;5044968;28;20112;-47
2022/08/23 01:11:41;;;;;;;18.13;14.07;;;16.30;99.90;;;;;;5044000;28;20059;-47
2022/08/23 01:14:13;;;;;;;15.32;13.88;;;16.30;99.90;;;;;;5026832;28;20629;-50
2022/08/23 01:16:52;;;;;;;15.27;12.63;;;16.30;99.90;;;;;;5043435;28;20048;-48
2022/08/23 01:19:45;;;;;;;17.85;13.80;;;16.30;99.90;;;;;;5045228;28;20056;-47
2022/08/23 01:22:35;;;;;;;16.15;13.90;;;16.30;99.90;;;;;;5044734;28;20057;-52
2022/08/23 01:25:04;;;;;;;17.33;13.98;;;16.30;99.90;;;;;;5038142;28;20563;-47
2022/08/23 01:27:30;;;;;;;21.13;14.55;;;16.30;99.90;;;;;;5044542;28;20375;-49
2022/08/23 01:29:56;;;;;;;20.05;15.18;;;16.30;99.90;;;;;;5044993;28;20103;-49
2022/08/23 01:32:24;;;;;;;18.90;15.10;;;16.30;99.90;;;;;;5027188;28;20049;-49
2022/08/23 01:34:50;;;;;;;19.00;15.95;;;16.30;99.90;;;;;;5048940;28;20053;-48
2022/08/23 01:37:19;;;;;;;18.63;16.13;;;16.20;99.90;;;;;;5043245;28;20426;-47
2022/08/23 01:39:45;;;;;;;18.17;14.80;;;16.20;99.90;;;;;;5045634;28;20049;-51
2022/08/23 01:42:11;;;;;;;20.13;14.95;;;16.20;99.90;;;;;;5042734;28;20067;-50
2022/08/23 01:44:37;;;;;;;18.35;13.82;;;16.20;99.90;;;;;;5043972;28;20055;-48
2022/08/23 01:47:03;;;;;;;21.52;14.40;;;16.20;99.90;;;;;;5042525;28;20152;-47
2022/08/23 01:49:28;;;;;;;17.40;13.93;;;16.20;99.90;;;;;;5045106;28;20130;-51
2022/08/23 01:51:54;;;;;;;18.35;14.95;;;16.20;99.90;;;;;;5043452;28;20144;-47
2022/08/23 01:54:20;;;;;;;18.00;14.75;;;16.20;99.90;;;;;;5026796;28;20056;-50
2022/08/23 01:56:46;;;;;;;18.88;14.95;;;16.20;99.90;;;;;;5043993;28;20049;-51
2022/08/23 01:59:12;;;;;;;15.25;13.65;;;16.20;99.90;;;;;;5044593;28;20041;-48
2022/08/23 02:01:38;;;;;;;17.60;14.60;;;16.10;99.90;;;;;;5043761;28;20048;-46
2022/08/23 02:04:04;;;;;;;15.82;14.15;;;16.10;99.90;;;;;;5043633;28;20093;-48
2022/08/23 02:06:30;;;;;;;19.75;17.65;;;16.10;99.90;;;;;;5043770;28;20156;-47
2022/08/23 02:09:02;;;;;;;15.95;14.48;;;16.10;99.90;;;;;;5043693;28;20080;-48
2022/08/23 02:11:35;;;;;;;20.95;16.08;;;16.20;99.90;;;;;;5026461;28;20062;-52
2022/08/23 02:14:06;;;;;;;20.57;15.67;;;16.10;99.90;;;;;;5026195;28;20563;-48
2022/08/23 02:16:36;;;;;;;18.42;15.27;;;16.10;99.90;;;;;;5043352;28;20041;-47
2022/08/23 02:19:04;;;;;;;17.70;15.82;;;16.10;99.90;;;;;;5043633;28;20418;-47
2022/08/23 02:21:30;;;;;;;20.05;15.13;;;16.10;99.90;;;;;;5041712;28;20045;-49
2022/08/23 02:23:58;;;;;;;17.88;14.63;;;16.20;99.90;;;;;;5043009;28;20060;-48
2022/08/23 02:26:23;;;;;;;19.02;15.43;;;16.10;99.90;;;;;;5043064;28;20087;-49
2022/08/23 02:28:51;;;;;;;17.23;15.45;;;16.10;99.90;;;;;;5043251;28;20730;-48
2022/08/23 02:31:17;;;;;;;17.17;15.38;;;16.10;99.90;;;;;;5044031;28;20048;-47
2022/08/23 02:33:42;;;;;;;20.98;15.93;;;16.00;99.90;;;;;;5043841;28;20079;-47
2022/08/23 02:36:08;;;;;;;16.95;15.13;;;16.10;99.90;;;;;;5025776;28;20466;-48
2022/08/23 02:38:34;;;;;;;18.02;15.23;;;16.00;99.90;;;;;;5043288;28;20118;-47
2022/08/23 02:41:00;;;;;;;20.27;16.30;;;16.00;99.90;;;;;;5024706;28;20061;-48
2022/08/23 02:43:26;;;;;;;19.85;15.23;;;16.00;99.90;;;;;;5043642;28;20052;-47
2022/08/23 02:45:52;;;;;;;17.63;15.75;;;16.00;99.90;;;;;;5043535;28;20057;-52
2022/08/23 02:48:18;;;;;;;19.45;15.13;;;16.00;99.90;;;;;;5043403;28;20160;-50
2022/08/23 02:50:43;;;;;;;18.33;16.52;;;16.00;99.90;;;;;;5044204;28;20175;-50
2022/08/23 02:53:09;;;;;;;18.52;16.52;;;16.10;99.90;;;;;;5027105;28;20052;-46
2022/08/23 02:55:35;;;;;;;20.50;16.75;;;16.10;99.90;;;;;;5046577;28;20044;-54
2022/08/23 02:58:01;;;;;;;17.92;15.50;;;16.10;99.90;;;;;;5043011;28;20152;-49
2022/08/23 03:00:27;;;;;;;18.88;15.40;;;16.10;99.90;;;;;;5043608;28;20048;-49
2022/08/23 03:02:52;;;;;;;19.10;17.08;;;16.10;99.90;;;;;;5042282;28;20049;-50
2022/08/23 03:05:18;;;;;;;18.50;16.67;;;16.10;99.90;;;;;;5026066;28;20407;-46
2022/08/23 03:07:44;;;;;;;19.15;17.17;;;16.10;99.90;;;;;;5041988;28;20122;-47
2022/08/23 03:10:10;;;;;;;18.90;16.63;;;16.10;99.90;;;;;;5024271;28;20495;-49
2022/08/23 03:12:36;;;;;;;20.80;18.15;;;16.00;99.90;;;;;;5025000;28;20052;-47
2022/08/23 03:15:03;;;;;;;18.35;16.50;;;16.00;99.90;;;;;;5038702;28;20052;-47
2022/08/23 03:17:29;;;;;;;20.52;17.52;;;16.00;99.90;;;;;;5041074;28;20049;-47
2022/08/23 03:19:55;;;;;;;23.13;17.85;;;16.00;99.90;;;;;;5016530;28;20067;-48
2022/08/23 03:22:22;;;;;;;19.02;17.00;;;15.90;99.90;;;;;;5042135;28;20149;-47
2022/08/23 03:24:48;;;;;;;20.13;17.98;;;15.90;99.90;;;;;;5034361;28;20040;-48
2022/08/23 03:27:15;;;;;;;22.25;19.80;;;15.90;99.90;;;;;;5023818;28;20048;-49
2022/08/23 03:29:41;;;;;;;20.90;18.67;;;16.00;99.90;;;;;;5042278;28;20049;-48
2022/08/23 03:32:06;;;;;;;19.60;17.52;;;15.90;99.90;;;;;;5041498;28;20118;-48
2022/08/23 03:34:33;;;;;;;21.02;18.60;;;15.90;99.90;;;;;;5041833;28;20055;-48
2022/08/23 03:36:59;;;;;;;20.13;18.10;;;15.90;99.90;;;;;;5041704;28;20095;-47
2022/08/23 03:39:25;;;;;;;20.52;18.45;;;15.90;99.90;;;;;;5042044;28;20167;-48
2022/08/23 03:41:51;;;;;;;21.63;19.02;;;15.90;99.90;;;;;;5041616;28;20163;-46
2022/08/23 03:44:16;;;;;;;23.58;19.40;;;15.90;99.90;;;;;;5041897;28;20400;-46
2022/08/23 03:46:42;;;;;;;21.30;18.45;;;15.90;99.90;;;;;;5041213;28;20053;-48
2022/08/23 03:49:08;;;;;;;22.15;18.52;;;15.90;99.90;;;;;;5041906;28;20047;-48
2022/08/23 03:51:34;;;;;;;20.00;17.90;;;15.90;99.90;;;;;;5040062;28;20114;-46
2022/08/23 03:54:01;;;;;;;23.90;18.13;;;15.90;99.90;;;;;;5042187;28;20590;-48
2022/08/23 03:56:34;;;;;;;21.70;19.50;;;15.90;99.90;;;;;;5041864;28;20045;-50
2022/08/23 03:59:00;;;;;;;;;;;15.90;99.90;;;;;;5042707;28;20057;-48
2022/08/23 04:01:26;;;;;;;19.35;17.38;;;15.90;99.90;;;;;;5041050;28;19931;-51
2022/08/23 04:03:52;;;;;;;21.33;19.20;;;15.80;99.90;;;;;;5042201;28;20053;-50
2022/08/23 04:06:18;;;;;;;20.42;17.70;;;15.80;99.90;;;;;;5041881;28;20047;-48
2022/08/23 04:08:45;;;;;;;19.20;17.05;;;15.70;99.90;;;;;;5041708;28;20060;-49
2022/08/23 04:11:12;;;;;;;18.20;16.27;;;15.70;99.90;;;;;;5023868;28;20523;-48
2022/08/23 04:13:42;;;;;;;16.33;14.77;;;15.70;99.90;;;;;;5028096;28;20048;-49
2022/08/23 04:16:08;;;;;;;17.60;15.95;;;15.60;99.90;;;;;;5042520;28;20430;-49
2022/08/23 04:18:35;;;;;;;18.65;16.90;;;15.60;99.90;;;;;;5024335;28;20083;-50
2022/08/23 04:21:04;;;;;;;18.80;16.88;;;15.50;99.90;;;;;;5042531;28;20068;-50
2022/08/23 04:23:30;;;;;;;18.17;16.40;;;15.40;99.90;;;;;;5042207;28;20106;-48
2022/08/23 04:25:56;;;;;;;17.95;16.35;;;15.40;99.90;;;;;;5041095;28;20451;-47
2022/08/23 04:28:23;;;;;;;20.05;18.08;;;15.40;99.90;;;;;;5039456;28;20057;-47
2022/08/23 04:30:50;;;;;;;20.85;18.20;;;15.30;99.90;;;;;;5042326;28;20051;-50
2022/08/23 04:33:17;;;;;;;23.30;17.27;;;15.40;99.90;;;;;;5022837;28;20132;-47
2022/08/23 04:35:43;;;;;;;19.48;17.23;;;15.30;99.90;;;;;;5041090;28;20488;-48
2022/08/23 04:38:10;;;;;;;18.85;17.00;;;15.40;99.90;;;;;;5035953;28;20419;-48
2022/08/23 04:43:20;;;;;;;19.10;17.30;;;15.30;99.90;;;;;;5040549;28;20114;-48
2022/08/23 04:45:46;;;;;;;18.35;16.48;;;15.40;99.90;;;;;;5040592;28;20049;-46
2022/08/23 04:48:12;;;;;;;21.67;19.13;;;15.50;99.90;;;;;;5039751;28;20617;-48
2022/08/23 04:50:39;;;;;;;24.52;18.70;;;15.50;99.90;;;;;;5022938;28;20064;-49
2022/08/23 04:53:06;;;;;;;19.88;17.92;;;15.50;99.90;;;;;;5040600;28;20549;-46
2022/08/23 04:55:31;;;;;;;20.08;18.08;;;15.50;99.90;;;;;;5041790;28;20246;-47
2022/08/23 04:57:57;;;;;;;14.63;13.35;;;15.50;99.90;;;;;;5041781;28;20364;-46
2022/08/23 05:00:23;;;;;;;13.15;11.82;;;15.60;99.90;;;;;;5040898;28;20711;-48
2022/08/23 05:02:49;;;;;;;10.77;7.90;;;15.60;99.90;;;;;;5039610;28;20056;-47
2022/08/23 05:05:16;;;;;;;13.40;12.05;;;15.70;99.90;;;;;;5018663;28;20061;-47
2022/08/23 05:07:41;;;;;;;18.48;14.30;;;15.70;99.90;;;;;;5037795;28;20095;-47
2022/08/23 05:10:09;;;;;;;18.70;14.88;;;15.70;99.90;;;;;;5040639;28;20448;-49
2022/08/23 05:12:35;;;;;;;11.10;8.68;;;15.90;99.90;;;;;;5040691;28;20075;-47
2022/08/23 05:15:01;;;;;;;15.95;14.32;;;16.00;99.90;;;;;;5040824;28;20504;-47
2022/08/23 05:17:26;;;;;;;16.65;14.52;;;16.10;99.90;;;;;;5040646;28;20053;-47
2022/08/23 05:19:52;;;;;;;16.65;14.35;;;16.30;99.90;;;;;;5040216;28;20404;-48
2022/08/23 05:22:18;;;;;;;17.27;15.52;;;16.40;99.90;;;;;;5040359;28;20049;-51
2022/08/23 05:24:44;;;;;;;16.52;14.75;;;16.70;99.90;;;;;;5040973;28;20115;-49
2022/08/23 05:27:10;;;;;;;15.70;14.10;;;17.50;99.90;;;;;;5041052;28;20487;-50
2022/08/23 05:29:35;;;;;;;14.23;12.88;;;18.30;99.90;;;;;;5024551;28;20060;-48
2022/08/23 05:32:02;;;;;;;14.70;12.75;;;18.90;99.90;;;;;;5044432;28;20049;-51
2022/08/23 05:34:27;;;;;;;13.77;12.13;;;19.80;99.90;;;;;;5041410;28;20064;-49
2022/08/23 05:36:53;;;;;;;13.75;12.55;;;20.70;99.90;;;;;;5040285;28;20231;-52
2022/08/23 05:39:19;;;;;;;12.80;11.55;;;21.60;99.90;;;;;;5039904;28;20045;-49
2022/08/23 05:41:45;;;;;;;16.63;10.98;;;22.50;99.90;;;;;;5043079;28;20499;-49
2022/08/23 05:44:11;;;;;;;11.52;10.52;;;23.30;99.90;;;;;;5044673;28;20076;-47
2022/08/23 05:46:37;;;;;;;11.60;10.48;;;23.80;99.90;;;;;;5043516;28;20102;-49
2022/08/23 05:49:04;;;;;;;12.75;10.65;;;24.40;99.90;;;;;;5044757;28;20052;-48
2022/08/23 05:51:32;;;;;;;12.32;11.10;;;24.80;99.90;;;;;;5044374;28;20045;-49
2022/08/23 05:54:04;;;;;;;12.60;11.40;;;24.90;99.90;;;;;;5036275;28;20075;-49
2022/08/23 05:56:32;;;;;;;11.23;10.30;;;24.80;99.90;;;;;;5043093;28;20493;-48
2022/08/23 05:59:00;;;;;;;11.13;10.13;;;25.20;99.90;;;;;;5044334;28;20053;-48
2022/08/23 06:01:28;;;;;;;11.90;10.73;;;25.60;99.90;;;;;;5025433;28;20053;-49
2022/08/23 06:03:53;;;;;;;11.35;10.27;;;25.90;99.90;;;;;;5025818;28;20354;-49
2022/08/23 06:06:20;;;;;;;12.30;10.95;;;26.40;99.90;;;;;;5043301;28;20045;-52
2022/08/23 06:08:47;;;;;;;11.48;10.27;;;26.80;99.90;;;;;;5044569;28;20046;-58
2022/08/23 06:11:16;;;;;;;11.35;10.25;;;27.50;99.90;;;;;;5043168;28;20056;-49
2022/08/23 06:13:52;;;;;;;10.77;9.63;;;28.10;99.40;;;;;;5043296;28;20083;-50
2022/08/23 06:16:21;;;;;;;10.50;9.50;;;28.60;99.00;;;;;;5043185;28;20044;-51
2022/08/23 06:18:47;;;;;;;13.13;10.15;;;28.90;98.70;;;;;;5043712;28;20052;-49
2022/08/23 06:21:14;;;;;;;11.30;9.93;;;28.50;97.50;;;;;;5043330;28;20041;-50
2022/08/23 06:23:41;;;;;;;10.65;9.75;;;28.60;97.70;;;;;;5043628;28;20052;-48
2022/08/23 06:26:19;;;;;;;10.63;9.70;;;28.40;97.00;;;;;;5044141;28;20080;-50
2022/08/23 06:28:47;;;;;;;10.73;9.63;;;28.80;97.50;;;;;;5025753;28;20041;-52
2022/08/23 06:31:14;;;;;;;13.30;9.80;;;29.10;97.30;;;;;;5023817;28;20045;-50
2022/08/23 06:33:42;;;;;;;11.48;10.35;;;29.20;96.90;;;;;;5042771;28;20136;-52
2022/08/23 06:36:16;;;;;;;11.07;10.05;;;29.60;96.20;;;;;;5021600;28;20547;-51
2022/08/23 06:38:43;;;;;;;10.32;9.32;;;29.90;96.10;;;;;;5023981;28;20061;-51
2022/08/23 06:41:11;;;;;;;10.13;9.18;;;30.60;95.50;;;;;;5024107;28;20107;-50
2022/08/23 06:43:38;;;;;;;10.57;9.63;;;30.50;94.70;;;;;;5024821;28;20045;-50
2022/08/23 06:46:08;;;;;;;12.52;9.90;;;30.10;94.80;;;;;;5024544;28;20080;-54
2022/08/23 06:48:34;;;;;;;10.35;9.35;;;30.30;94.80;;;;;;5024459;28;20129;-54
2022/08/23 06:50:59;;;;;;;10.70;9.60;;;30.50;94.90;;;;;;5023863;28;20099;-53
2022/08/23 06:53:25;;;;;;;10.52;9.05;;;29.40;94.40;;;;;;5025789;28;20057;-52
2022/08/23 06:55:51;;;;;;;10.90;9.80;;;28.50;95.60;;;;;;5024553;28;20053;-54
2022/08/23 06:58:18;;;;;;;11.27;10.18;;;27.60;96.00;;;;;;5023369;28;20774;-53
2022/08/23 07:00:43;;;;;;;11.80;10.38;;;27.00;96.90;;;;;;5021874;28;20501;-52
2022/08/23 07:03:09;;;;;;;11.40;10.30;;;26.40;97.40;;;;;;5023675;28;20106;-53
2022/08/23 07:05:35;;;;;;;11.25;10.02;;;25.90;98.30;;;;;;5021994;28;20049;-52
2022/08/23 07:08:01;;;;;;;12.75;10.45;;;25.50;99.10;;;;;;5022153;28;20085;-52
2022/08/23 07:10:26;;;;;;;12.38;11.00;;;25.10;99.30;;;;;;5020950;28;20123;-53
2022/08/23 07:12:52;;;;;;;12.07;10.10;;;24.70;99.90;;;;;;5021207;28;20053;-51
2022/08/23 07:15:18;;;;;;;11.70;10.38;;;24.40;99.90;;;;;;5020990;28;20056;-53
2022/08/23 07:17:44;;;;;;;11.93;10.68;;;24.10;99.90;;;;;;5021661;28;20045;-51
2022/08/23 07:20:10;;;;;;;11.23;10.13;;;24.40;99.90;;;;;;5021657;28;20142;-50
2022/08/23 07:22:35;;;;;;;11.20;10.18;;;24.80;99.90;;;;;;5022252;28;20038;-49
2022/08/23 07:25:02;;;;;;;12.95;10.63;;;25.10;99.90;;;;;;5022132;28;20054;-54
2022/08/23 07:27:28;;;;;;;11.45;10.25;;;25.40;99.90;;;;;;5021213;28;20550;-54
2022/08/23 07:29:54;;;;;;;10.98;9.82;;;25.20;99.90;;;;;;5021954;28;20053;-51
2022/08/23 07:32:19;;;;;;;12.45;10.40;;;25.10;99.90;;;;;;5021870;28;20531;-50
2022/08/23 07:34:45;;;;;;;13.15;11.27;;;25.20;99.90;;;;;;5021737;28;20052;-52
2022/08/23 07:37:12;;;;;;;10.88;9.88;;;25.40;99.90;;;;;;5035620;28;20067;-53
2022/08/23 07:39:38;;;;;;;12.45;9.48;;;25.50;99.90;;;;;;5041440;28;20399;-53
2022/08/23 07:42:04;;;;;;;12.05;10.00;;;25.60;99.70;;;;;;5023973;28;20049;-53
2022/08/23 07:44:30;;;;;;;10.10;8.88;;;25.70;99.70;;;;;;5042030;28;20068;-56
2022/08/23 07:46:56;;;;;;;11.07;10.02;;;25.70;99.30;;;;;;5040184;28;20436;-54
2022/08/23 07:49:22;;;;;;;10.38;8.75;;;25.80;99.00;;;;;;5023449;28;20393;-53
2022/08/23 07:51:50;;;;;;;12.20;9.38;;;25.90;99.10;;;;;;5041937;28;20045;-57
2022/08/23 07:54:18;;;;;;;9.43;8.63;;;25.90;99.00;;;;;;5042197;28;20495;-55
2022/08/23 07:56:44;;;;;;;9.88;8.70;;;25.80;98.90;;;;;;5041417;28;20052;-54
2022/08/23 07:59:10;;;;;;;12.18;8.98;;;26.00;98.80;;;;;;5042050;28;20551;-54
2022/08/23 08:01:37;;;;;;;11.65;8.27;;;26.10;98.90;;;;;;5040867;28;20480;-54
2022/08/23 08:04:05;;;;;;;10.40;8.88;;;26.20;98.40;;;;;;5041758;28;20049;-54
2022/08/23 08:06:50;;;;;;;11.13;8.38;;;26.20;98.30;;;;;;5040701;28;20514;-55
2022/08/23 08:09:19;;;;;;;12.95;8.35;;;26.30;97.90;;;;;;5041369;28;20432;-55
2022/08/23 08:11:46;;;;;;;12.40;8.80;;;26.40;98.20;;;;;;5022533;28;20115;-54
2022/08/23 08:14:13;;;;;;;10.18;7.43;;;26.40;98.10;;;;;;5042233;28;20051;-54
2022/08/23 08:16:42;;;;;;;12.15;8.55;;;26.40;97.90;;;;;;5042582;28;20049;-55
2022/08/23 08:19:10;;;;;;;9.90;9.02;;;26.30;98.20;;;;;;5041620;28;20080;-56
2022/08/23 08:21:38;;;;;;;9.65;8.27;;;26.10;98.50;;;;;;5024239;28;20052;-53
2022/08/23 08:24:05;;;;;;;9.95;8.18;;;26.10;99.30;;;;;;5041761;28;20059;-57
2022/08/23 08:26:31;;;;;;;9.70;7.90;;;26.10;99.10;;;;;;5040608;28;20124;-54
2022/08/23 08:28:57;;;;;;;11.63;8.48;;;26.10;98.30;;;;;;5022783;28;20538;-55
2022/08/23 08:31:25;;;;;;;10.85;8.45;;;26.10;98.20;;;;;;5041508;28;20044;-55
2022/08/23 08:33:51;;;;;;;11.18;8.55;;;26.00;98.10;;;;;;5039989;28;20247;-56
2022/08/23 08:36:34;;;;;;;11.15;9.15;;;26.00;98.30;;;;;;5040722;28;20110;-57
2022/08/23 08:39:01;;;;;;;11.65;8.77;;;26.00;98.30;;;;;;5038768;28;20327;-55
2022/08/23 08:41:54;;;;;;;11.35;9.07;;;25.90;98.30;;;;;;5040439;28;20068;-54
2022/08/23 08:44:42;;;;;;;9.45;8.52;;;25.90;98.30;;;;;;5039550;28;20044;-55
2022/08/23 08:47:44;;;;;;;10.27;9.27;;;25.90;98.40;;;;;;5022805;28;20059;-53
2022/08/23 08:50:27;;;;;;;11.02;8.82;;;25.90;98.80;;;;;;5019443;28;20048;-56
2022/08/23 08:53:39;;;;;;;14.40;9.52;;;26.00;98.50;;;;;;5040347;28;20101;-55
2022/08/23 08:56:28;;;;;;;10.77;9.73;;;25.90;98.80;;;;;;4956147;28;20697;-55
2022/08/23 08:59:02;;;;;;;10.27;9.18;;;25.70;98.60;;;;;;4959433;28;20062;-56
2022/08/23 09:01:31;;;;;;;12.93;9.52;;;25.70;98.80;;;;;;4959267;28;20347;-56
2022/08/23 09:03:57;;;;;;;11.77;9.45;;;25.70;98.30;;;;;;4959593;28;20490;-55
2022/08/23 09:06:42;;;;;;;10.05;8.85;;;25.70;98.50;;;;;;4943417;28;20146;-56
2022/08/23 09:09:51;;;;;;;12.55;8.43;;;25.70;97.90;;;;;;4959729;28;20050;-55
2022/08/23 09:12:37;;;;;;;11.07;9.52;;;25.70;98.30;;;;;;4943079;28;20146;-55
2022/08/23 09:15:36;;;;;;;10.05;9.00;;;25.70;98.80;;;;;;4960103;28;20552;-55
2022/08/23 09:18:12;;;;;;;9.80;8.95;;;25.80;98.70;;;;;;4960274;28;20105;-55
2022/08/23 09:20:40;;;;;;;10.27;8.63;;;26.10;98.60;;;;;;4962567;28;20046;-56
2022/08/23 09:23:19;;;;;;;10.68;8.73;;;26.30;98.30;;;;;;4963592;28;20103;-56
2022/08/23 09:25:56;;;;;;;14.45;9.40;;;26.60;98.10;;;;;;4962441;28;20217;-57
2022/08/23 09:28:22;;;;;;;10.65;8.50;;;26.70;97.80;;;;;;4962974;28;20051;-56
2022/08/23 09:30:54;;;;;;;9.80;7.90;;;26.60;98.20;;;;;;4954475;28;20054;-57
2022/08/23 09:33:24;;;;;;;10.38;8.10;;;26.80;97.80;;;;;;5044100;28;20463;-57
2022/08/23 09:36:15;;;;;;;10.18;7.70;;;26.90;97.60;;;;;;5043898;28;20057;-55
2022/08/23 09:39:00;;;;;;;12.27;6.70;;;26.90;97.20;;;;;;5027619;28;20057;-56
2022/08/23 09:41:32;;;;;;;10.63;7.13;;;26.80;97.70;;;;;;5026290;28;20107;-56
2022/08/23 09:44:01;;;;;;;9.52;7.70;;;26.80;98.00;;;;;;5046255;28;20389;-56
2022/08/23 09:46:30;;;;;;;9.95;7.53;;;26.90;97.30;;;;;;5047588;28;20732;-57
2022/08/23 09:48:57;;;;;;;10.98;6.68;;;27.00;97.80;;;;;;5041257;28;20053;-57
2022/08/23 09:51:23;;;;;;;11.18;6.63;;;27.00;97.90;;;;;;5047239;28;20052;-57
2022/08/23 09:54:10;;;;;;;9.52;6.47;;;27.10;98.30;;;;;;5042455;28;20057;-58
2022/08/23 09:56:43;;;;;;;10.07;6.32;;;27.30;96.90;;;;;;5037942;28;20053;-57
2022/08/23 09:59:25;;;;;;;10.43;6.78;;;27.30;97.10;;;;;;5026479;28;20053;-55
2022/08/23 10:01:54;;;;;;;8.70;5.80;;;27.30;95.30;;;;;;5040210;28;20880;-57
2022/08/23 10:04:41;;;;;;;8.38;5.95;;;27.50;96.50;;;;;;5039280;28;20883;-57
2022/08/23 10:07:27;;;;;;;8.75;6.25;;;27.60;96.60;;;;;;5036004;28;20044;-56
2022/08/23 10:10:12;;;;;;;9.23;6.13;;;27.70;96.40;;;;;;5040251;28;20132;-56
2022/08/23 10:12:38;;;;;;;7.97;5.82;;;27.80;96.00;;;;;;5008039;28;20065;-58
2022/08/23 10:15:05;;;;;;;9.73;5.28;;;27.70;95.80;;;;;;5045290;28;20049;-58
2022/08/23 10:18:07;;;;;;;13.27;5.80;;;27.80;95.10;;;;;;5044643;28;20048;-57
2022/08/23 10:20:46;;;;;;;10.68;5.80;;;27.80;95.30;;;;;;5026560;28;20103;-57
2022/08/23 10:23:25;;;;;;;9.90;5.40;;;27.90;94.30;;;;;;5025622;28;20053;-58
2022/08/23 10:25:57;;;;;;;12.68;6.05;;;27.90;95.30;;;;;;5025708;28;20950;-57
2022/08/23 10:32:12;;;;;;;9.80;5.60;;;28.00;94.50;;;;;;5044442;28;20521;-57
2022/08/23 10:34:49;;;;;;;9.73;8.27;;;28.00;94.20;;;;;;5047385;28;20052;-57
2022/08/23 10:37:34;;;;;;;7.60;6.40;;;28.10;94.50;;;;;;5049913;28;20538;-57
2022/08/23 10:40:13;;;;;;;8.07;6.38;;;28.30;95.80;;;;;;5026361;28;20060;-58
2022/08/23 10:42:49;;;;;;;8.18;6.78;;;28.40;94.30;;;;;;5024683;28;20087;-57
2022/08/23 10:45:18;;;;;;;9.60;5.90;;;28.50;93.40;;;;;;5041358;28;20056;-58
2022/08/23 10:47:50;;;;;;;8.98;4.97;;;28.60;93.60;;;;;;5040266;28;20065;-58
2022/08/23 10:50:19;;;;;;;10.57;5.32;;;28.70;93.40;;;;;;5024220;28;20053;-58
2022/08/23 10:53:05;;;;;;;8.13;5.70;;;28.70;93.40;;;;;;5041361;28;20433;-58
2022/08/23 10:55:53;;;;;;;9.07;5.63;;;28.60;92.70;;;;;;5041973;28;20045;-57
2022/08/23 10:58:26;;;;;;;12.23;4.90;;;28.60;93.40;;;;;;5021251;28;20107;-58
2022/08/23 11:00:54;;;;;;;8.85;5.53;;;28.50;93.30;;;;;;5042408;28;20080;-58
2022/08/23 11:03:49;;;;;;;12.45;4.80;;;28.30;93.90;;;;;;5044215;28;20071;-57
2022/08/23 11:06:43;;;;;;;6.78;4.30;;;28.30;92.70;;;;;;5036432;28;20746;-58
2022/08/23 11:09:18;;;;;;;7.50;4.90;;;28.30;93.10;;;;;;5042501;28;20048;-58
2022/08/23 11:11:49;;;;;;;9.32;5.20;;;28.30;92.40;;;;;;5044351;28;20060;-58
2022/08/23 11:14:50;;;;;;;8.45;4.53;;;28.30;93.40;;;;;;5026381;28;20395;-58
2022/08/23 11:17:27;;;;;;;11.35;5.50;;;28.30;93.10;;;;;;5042975;28;20464;-57
2022/08/23 11:19:58;;;;;;;7.95;4.60;;;28.50;92.10;;;;;;5042552;28;20059;-59
2022/08/23 11:22:30;;;;;;;8.80;4.80;;;28.50;92.00;;;;;;5043013;28;20045;-59
2022/08/23 11:24:58;;;;;;;;;;;28.60;92.60;;;;;;5043700;28;20053;-59
2022/08/23 11:27:31;;;;;;;7.60;3.95;;;28.60;91.90;;;;;;5044464;28;19929;-58
2022/08/23 11:30:17;;;;;;;9.55;4.43;;;28.70;92.90;;;;;;5044889;28;20164;-59
2022/08/23 11:32:45;;;;;;;9.45;3.85;;;28.60;92.60;;;;;;5043922;28;20622;-57
2022/08/23 11:35:36;;;;;;;10.88;4.05;;;28.70;92.60;;;;;;5043583;28;21631;-58
2022/08/23 11:38:04;;;;;;;7.80;3.80;;;28.70;92.30;;;;;;5003499;28;20402;-58
2022/08/23 11:40:44;;;;;;;9.65;4.03;;;28.80;92.90;;;;;;5002490;28;20081;-58
2022/08/23 11:43:27;;;;;;;9.38;4.22;;;28.90;93.10;;;;;;5004540;28;20055;-59
2022/08/23 11:46:21;;;;;;;10.13;4.82;;;28.90;91.60;;;;;;5002927;28;20042;-58
2022/08/23 11:49:29;;;;;;;7.32;4.47;;;29.00;91.70;;;;;;5012642;28;20107;-58
2022/08/23 11:52:00;;;;;;;6.40;3.40;;;29.00;92.50;;;;;;5002758;28;20058;-58
2022/08/23 11:54:40;;;;;;;8.27;3.38;;;29.10;91.60;;;;;;5003724;28;20061;-58
2022/08/23 11:57:46;;;;;;;7.35;3.38;;;29.20;92.20;;;;;;5000669;28;20093;-59
2022/08/23 12:00:50;;;;;;;6.57;3.00;;;29.30;91.80;;;;;;5001984;28;20536;-58
2022/08/23 12:03:32;;;;;;;5.50;3.00;;;29.50;92.00;;;;;;5000306;28;20049;-58
2022/08/23 12:06:33;;;;;;;7.95;3.70;;;29.40;92.30;;;;;;5002745;28;20046;-59
2022/08/23 12:09:04;;;;;;;8.32;4.03;;;29.50;92.70;;;;;;5000135;28;20057;-58
2022/08/23 12:11:54;;;;;;;9.13;4.13;;;29.40;92.20;;;;;;5003767;28;20496;-58
2022/08/23 12:14:50;;;;;;;6.78;3.88;;;29.30;92.20;;;;;;5003194;28;20080;-59
2022/08/23 12:17:25;;;;;;;11.10;5.15;;;29.30;91.70;;;;;;5000368;28;20069;-59
2022/08/23 12:20:21;;;;;;;7.47;4.00;;;29.30;91.00;;;;;;5004657;28;20060;-58
2022/08/23 12:23:13;;;;;;;7.72;3.72;;;29.20;92.10;;;;;;5001511;28;20092;-58
2022/08/23 12:25:48;;;;;;;7.55;3.80;;;29.40;91.00;;;;;;5000372;28;20089;-59
2022/08/23 12:28:44;;;;;;;9.35;4.10;;;29.60;91.90;;;;;;5009483;28;20107;-59
2022/08/23 12:31:26;;;;;;;7.68;3.53;;;29.60;91.50;;;;;;4985475;28;20065;-58
2022/08/23 12:34:17;;;;;;;6.93;3.83;;;29.60;90.30;;;;;;4982381;28;20964;-58
2022/08/23 12:36:55;;;;;;;8.85;3.97;;;29.70;91.30;;;;;;4993330;28;20065;-58
2022/08/23 12:39:35;;;;;;;9.38;3.65;;;29.80;92.20;;;;;;5006345;28;20052;-58
2022/08/23 12:42:24;;;;;;;7.78;3.45;;;29.90;92.20;;;;;;5007320;28;20436;-58
2022/08/23 12:45:11;;;;;;;8.05;4.03;;;29.80;91.00;;;;;;4998341;28;20064;-58
2022/08/23 12:47:41;;;;;;;6.97;3.72;;;29.80;89.90;;;;;;4984962;28;20054;-58
2022/08/23 12:50:20;;;;;;;9.25;4.15;;;29.60;91.90;;;;;;4998631;28;20065;-58
2022/08/23 12:53:00;;;;;;;7.55;4.00;;;29.50;91.20;;;;;;5000519;28;20128;-58
2022/08/23 12:55:35;;;;;;;9.27;3.78;;;29.30;91.40;;;;;;4983303;28;20053;-58
2022/08/23 12:58:03;;;;;;;10.27;4.72;;;29.20;91.40;;;;;;4967490;28;20061;-58
2022/08/23 13:00:49;;;;;;;7.68;3.92;;;29.00;91.20;;;;;;4999740;28;20061;-58
2022/08/23 13:03:43;;;;;;;8.20;3.97;;;28.90;91.60;;;;;;4982182;28;20565;-57
2022/08/23 13:06:46;;;;;;;9.93;3.72;;;28.80;92.50;;;;;;5011006;28;20057;-60
2022/08/23 13:09:29;;;;;;;8.00;4.00;;;28.90;90.80;;;;;;5019661;28;20136;-58
2022/08/23 13:11:56;;;;;;;12.32;4.63;;;29.20;90.50;;;;;;5042182;28;20545;-58